sensor_id;sensor_type;location;lat;lon;timestamp;P1;durP1;ratioP1;P2;durP2;ratioP2
22567;SDS011;11450;50.818;4.382;2022-07-30T00:00:00;7.88;;;3.67;;
22567;SDS011;11450;50.818;4.382;2022-07-30T00:02:26;10.60;;;3.92;;
22567;SDS011;11450;50.818;4.382;2022-07-30T00:04:52;5.20;;;3.40;;
22567;SDS011;11450;50.818;4.382;2022-07-30T00:07:17;7.65;;;3.70;;
22567;SDS011;11450;50.818;4.382;2022-07-30T00:09:43;8.30;;;3.78;;
22567;SDS011;11450;50.818;4.382;2022-07-30T00:12:09;8.18;;;3.70;;
22567;SDS011;11450;50.818;4.382;2022-07-30T00:14:34;9.60;;;4.00;;
22567;SDS011;11450;50.818;4.382;2022-07-30T00:17:01;5.45;;;4.15;;
22567;SDS011;11450;50.818;4.382;2022-07-30T00:19:27;9.15;;;4.10;;
22567;SDS011;11450;50.818;4.382;2022-07-30T00:21:53;6.40;;;3.03;;
22567;SDS011;11450;50.818;4.382;2022-07-30T00:24:19;5.93;;;3.80;;
22567;SDS011;11450;50.818;4.382;2022-07-30T00:26:45;8.20;;;3.72;;
22567;SDS011;11450;50.818;4.382;2022-07-30T00:29:11;9.32;;;3.63;;
22567;SDS011;11450;50.818;4.382;2022-07-30T00:31:37;7.90;;;4.00;;
22567;SDS011;11450;50.818;4.382;2022-07-30T00:34:03;8.45;;;3.88;;
22567;SDS011;11450;50.818;4.382;2022-07-30T00:36:29;8.65;;;4.10;;
22567;SDS011;11450;50.818;4.382;2022-07-30T00:38:54;6.72;;;3.70;;
22567;SDS011;11450;50.818;4.382;2022-07-30T00:41:20;10.10;;;4.00;;
22567;SDS011;11450;50.818;4.382;2022-07-30T00:43:46;9.73;;;4.35;;
22567;SDS011;11450;50.818;4.382;2022-07-30T00:46:11;11.35;;;5.15;;
22567;SDS011;11450;50.818;4.382;2022-07-30T00:48:38;8.02;;;4.80;;
22567;SDS011;11450;50.818;4.382;2022-07-30T00:51:04;7.97;;;4.10;;
22567;SDS011;11450;50.818;4.382;2022-07-30T00:53:30;9.63;;;5.15;;
22567;SDS011;11450;50.818;4.382;2022-07-30T00:55:56;7.88;;;3.90;;
22567;SDS011;11450;50.818;4.382;2022-07-30T00:58:22;9.30;;;4.53;;
22567;SDS011;11450;50.818;4.382;2022-07-30T01:00:48;12.40;;;5.88;;
22567;SDS011;11450;50.818;4.382;2022-07-30T01:03:14;9.50;;;4.53;;
22567;SDS011;11450;50.818;4.382;2022-07-30T01:05:39;8.13;;;4.38;;
22567;SDS011;11450;50.818;4.382;2022-07-30T01:08:05;7.50;;;3.80;;
22567;SDS011;11450;50.818;4.382;2022-07-30T01:10:30;10.15;;;5.57;;
22567;SDS011;11450;50.818;4.382;2022-07-30T01:12:56;8.57;;;5.40;;
22567;SDS011;11450;50.818;4.382;2022-07-30T01:15:23;8.40;;;4.93;;
22567;SDS011;11450;50.818;4.382;2022-07-30T01:17:49;9.90;;;4.93;;
22567;SDS011;11450;50.818;4.382;2022-07-30T01:20:20;10.70;;;4.97;;
22567;SDS011;11450;50.818;4.382;2022-07-30T01:23:17;8.10;;;5.72;;
22567;SDS011;11450;50.818;4.382;2022-07-30T01:28:29;7.70;;;5.32;;
22567;SDS011;11450;50.818;4.382;2022-07-30T01:30:57;12.50;;;5.72;;
22567;SDS011;11450;50.818;4.382;2022-07-30T01:33:25;12.38;;;5.40;;
22567;SDS011;11450;50.818;4.382;2022-07-30T01:35:52;10.65;;;5.30;;
22567;SDS011;11450;50.818;4.382;2022-07-30T01:38:20;9.02;;;5.30;;
22567;SDS011;11450;50.818;4.382;2022-07-30T01:40:48;7.38;;;5.47;;
22567;SDS011;11450;50.818;4.382;2022-07-30T01:43:16;9.82;;;5.15;;
22567;SDS011;11450;50.818;4.382;2022-07-30T01:45:43;10.77;;;5.10;;
22567;SDS011;11450;50.818;4.382;2022-07-30T01:48:11;10.68;;;4.82;;
22567;SDS011;11450;50.818;4.382;2022-07-30T01:50:51;7.63;;;4.25;;
22567;SDS011;11450;50.818;4.382;2022-07-30T01:53:21;9.88;;;5.25;;
22567;SDS011;11450;50.818;4.382;2022-07-30T01:55:52;11.82;;;5.38;;
22567;SDS011;11450;50.818;4.382;2022-07-30T01:58:20;13.88;;;5.93;;
22567;SDS011;11450;50.818;4.382;2022-07-30T02:00:48;8.00;;;4.82;;
22567;SDS011;11450;50.818;4.382;2022-07-30T02:03:16;7.63;;;4.85;;
22567;SDS011;11450;50.818;4.382;2022-07-30T02:05:42;10.73;;;6.05;;
22567;SDS011;11450;50.818;4.382;2022-07-30T02:08:15;11.93;;;5.50;;
22567;SDS011;11450;50.818;4.382;2022-07-30T02:10:45;8.70;;;5.35;;
22567;SDS011;11450;50.818;4.382;2022-07-30T02:13:16;13.18;;;6.30;;
22567;SDS011;11450;50.818;4.382;2022-07-30T02:15:51;9.63;;;6.57;;
22567;SDS011;11450;50.818;4.382;2022-07-30T02:18:30;10.60;;;6.38;;
22567;SDS011;11450;50.818;4.382;2022-07-30T02:21:04;11.18;;;5.80;;
22567;SDS011;11450;50.818;4.382;2022-07-30T02:23:33;10.40;;;7.25;;
22567;SDS011;11450;50.818;4.382;2022-07-30T02:26:01;10.00;;;5.90;;
22567;SDS011;11450;50.818;4.382;2022-07-30T02:28:28;9.82;;;6.68;;
22567;SDS011;11450;50.818;4.382;2022-07-30T02:30:57;10.63;;;6.78;;
22567;SDS011;11450;50.818;4.382;2022-07-30T02:33:26;12.23;;;6.88;;
22567;SDS011;11450;50.818;4.382;2022-07-30T02:35:54;9.75;;;5.50;;
22567;SDS011;11450;50.818;4.382;2022-07-30T02:38:23;10.45;;;5.45;;
22567;SDS011;11450;50.818;4.382;2022-07-30T02:40:53;9.13;;;5.97;;
22567;SDS011;11450;50.818;4.382;2022-07-30T02:43:24;9.45;;;5.38;;
22567;SDS011;11450;50.818;4.382;2022-07-30T02:45:51;9.80;;;6.22;;
22567;SDS011;11450;50.818;4.382;2022-07-30T02:48:19;10.38;;;7.05;;
22567;SDS011;11450;50.818;4.382;2022-07-30T02:50:47;14.45;;;8.55;;
22567;SDS011;11450;50.818;4.382;2022-07-30T02:53:16;9.18;;;5.95;;
22567;SDS011;11450;50.818;4.382;2022-07-30T02:55:43;8.90;;;5.90;;
22567;SDS011;11450;50.818;4.382;2022-07-30T02:58:10;11.90;;;7.47;;
22567;SDS011;11450;50.818;4.382;2022-07-30T03:00:41;8.35;;;5.85;;
22567;SDS011;11450;50.818;4.382;2022-07-30T03:03:07;10.55;;;7.47;;
22567;SDS011;11450;50.818;4.382;2022-07-30T03:05:36;9.52;;;6.60;;
22567;SDS011;11450;50.818;4.382;2022-07-30T03:08:03;10.27;;;8.52;;
22567;SDS011;11450;50.818;4.382;2022-07-30T03:10:29;10.95;;;7.78;;
22567;SDS011;11450;50.818;4.382;2022-07-30T03:12:56;11.32;;;6.95;;
22567;SDS011;11450;50.818;4.382;2022-07-30T03:15:24;12.18;;;8.02;;
22567;SDS011;11450;50.818;4.382;2022-07-30T03:17:51;20.13;;;7.05;;
22567;SDS011;11450;50.818;4.382;2022-07-30T03:20:19;11.00;;;7.82;;
22567;SDS011;11450;50.818;4.382;2022-07-30T03:22:51;11.63;;;7.38;;
22567;SDS011;11450;50.818;4.382;2022-07-30T03:25:19;11.73;;;7.43;;
22567;SDS011;11450;50.818;4.382;2022-07-30T03:27:48;11.68;;;7.30;;
22567;SDS011;11450;50.818;4.382;2022-07-30T03:30:15;12.50;;;7.13;;
22567;SDS011;11450;50.818;4.382;2022-07-30T03:32:41;10.02;;;8.15;;
22567;SDS011;11450;50.818;4.382;2022-07-30T03:35:07;8.95;;;6.85;;
22567;SDS011;11450;50.818;4.382;2022-07-30T03:37:35;10.48;;;6.40;;
22567;SDS011;11450;50.818;4.382;2022-07-30T03:40:03;13.75;;;6.72;;
22567;SDS011;11450;50.818;4.382;2022-07-30T03:42:30;8.98;;;6.18;;
22567;SDS011;11450;50.818;4.382;2022-07-30T03:44:57;9.90;;;7.10;;
22567;SDS011;11450;50.818;4.382;2022-07-30T03:47:25;9.10;;;6.25;;
22567;SDS011;11450;50.818;4.382;2022-07-30T03:49:51;10.48;;;6.53;;
22567;SDS011;11450;50.818;4.382;2022-07-30T03:52:17;12.88;;;7.68;;
22567;SDS011;11450;50.818;4.382;2022-07-30T03:54:45;11.88;;;9.07;;
22567;SDS011;11450;50.818;4.382;2022-07-30T03:57:12;13.20;;;7.88;;
22567;SDS011;11450;50.818;4.382;2022-07-30T03:59:38;14.43;;;8.90;;
22567;SDS011;11450;50.818;4.382;2022-07-30T04:02:04;11.23;;;8.05;;
22567;SDS011;11450;50.818;4.382;2022-07-30T04:04:29;9.60;;;6.95;;
22567;SDS011;11450;50.818;4.382;2022-07-30T04:06:56;11.82;;;8.68;;
22567;SDS011;11450;50.818;4.382;2022-07-30T04:09:22;15.57;;;8.73;;
22567;SDS011;11450;50.818;4.382;2022-07-30T04:11:49;12.95;;;7.20;;
22567;SDS011;11450;50.818;4.382;2022-07-30T04:14:14;11.10;;;8.30;;
22567;SDS011;11450;50.818;4.382;2022-07-30T04:19:28;13.32;;;7.85;;
22567;SDS011;11450;50.818;4.382;2022-07-30T04:22:02;10.07;;;7.10;;
22567;SDS011;11450;50.818;4.382;2022-07-30T04:24:30;16.13;;;8.75;;
22567;SDS011;11450;50.818;4.382;2022-07-30T04:26:57;12.98;;;8.02;;
22567;SDS011;11450;50.818;4.382;2022-07-30T04:29:24;15.80;;;9.10;;
22567;SDS011;11450;50.818;4.382;2022-07-30T04:31:51;15.90;;;9.93;;
22567;SDS011;11450;50.818;4.382;2022-07-30T04:34:18;10.23;;;9.15;;
22567;SDS011;11450;50.818;4.382;2022-07-30T04:36:43;11.55;;;9.10;;
22567;SDS011;11450;50.818;4.382;2022-07-30T04:39:09;20.35;;;11.70;;
22567;SDS011;11450;50.818;4.382;2022-07-30T04:41:35;15.85;;;11.00;;
22567;SDS011;11450;50.818;4.382;2022-07-30T04:44:01;20.42;;;13.57;;
22567;SDS011;11450;50.818;4.382;2022-07-30T04:46:26;14.38;;;12.82;;
22567;SDS011;11450;50.818;4.382;2022-07-30T04:48:52;18.75;;;13.48;;
22567;SDS011;11450;50.818;4.382;2022-07-30T04:51:33;16.33;;;12.85;;
22567;SDS011;11450;50.818;4.382;2022-07-30T04:54:01;17.23;;;12.35;;
22567;SDS011;11450;50.818;4.382;2022-07-30T04:56:29;15.10;;;10.93;;
22567;SDS011;11450;50.818;4.382;2022-07-30T04:58:58;20.83;;;12.40;;
22567;SDS011;11450;50.818;4.382;2022-07-30T05:01:26;16.23;;;12.77;;
22567;SDS011;11450;50.818;4.382;2022-07-30T05:03:57;12.73;;;9.98;;
22567;SDS011;11450;50.818;4.382;2022-07-30T05:06:24;15.48;;;12.63;;
22567;SDS011;11450;50.818;4.382;2022-07-30T05:08:51;18.83;;;12.27;;
22567;SDS011;11450;50.818;4.382;2022-07-30T05:11:17;14.63;;;9.95;;
22567;SDS011;11450;50.818;4.382;2022-07-30T05:13:43;14.07;;;9.52;;
22567;SDS011;11450;50.818;4.382;2022-07-30T05:16:10;14.70;;;11.63;;
22567;SDS011;11450;50.818;4.382;2022-07-30T05:18:36;11.63;;;9.77;;
22567;SDS011;11450;50.818;4.382;2022-07-30T05:21:02;12.40;;;8.98;;
22567;SDS011;11450;50.818;4.382;2022-07-30T05:23:28;14.40;;;9.52;;
22567;SDS011;11450;50.818;4.382;2022-07-30T05:25:54;15.93;;;8.82;;
22567;SDS011;11450;50.818;4.382;2022-07-30T05:28:20;18.48;;;9.70;;
22567;SDS011;11450;50.818;4.382;2022-07-30T05:30:46;13.80;;;9.68;;
22567;SDS011;11450;50.818;4.382;2022-07-30T05:33:12;11.15;;;7.82;;
22567;SDS011;11450;50.818;4.382;2022-07-30T05:35:38;9.75;;;8.38;;
22567;SDS011;11450;50.818;4.382;2022-07-30T05:38:03;13.68;;;10.10;;
22567;SDS011;11450;50.818;4.382;2022-07-30T05:40:29;13.35;;;9.85;;
22567;SDS011;11450;50.818;4.382;2022-07-30T05:42:55;13.18;;;8.07;;
22567;SDS011;11450;50.818;4.382;2022-07-30T05:45:20;12.60;;;9.48;;
22567;SDS011;11450;50.818;4.382;2022-07-30T05:47:46;15.80;;;8.73;;
22567;SDS011;11450;50.818;4.382;2022-07-30T05:50:12;10.30;;;7.70;;
22567;SDS011;11450;50.818;4.382;2022-07-30T05:52:38;9.65;;;6.90;;
22567;SDS011;11450;50.818;4.382;2022-07-30T05:55:03;11.02;;;6.45;;
22567;SDS011;11450;50.818;4.382;2022-07-30T05:57:29;11.32;;;7.80;;
22567;SDS011;11450;50.818;4.382;2022-07-30T05:59:55;9.13;;;7.28;;
22567;SDS011;11450;50.818;4.382;2022-07-30T06:02:21;13.07;;;7.25;;
22567;SDS011;11450;50.818;4.382;2022-07-30T06:04:46;9.68;;;6.85;;
22567;SDS011;11450;50.818;4.382;2022-07-30T06:07:12;14.02;;;7.10;;
22567;SDS011;11450;50.818;4.382;2022-07-30T06:09:38;9.18;;;6.55;;
22567;SDS011;11450;50.818;4.382;2022-07-30T06:12:03;8.10;;;6.80;;
22567;SDS011;11450;50.818;4.382;2022-07-30T06:14:29;10.57;;;7.50;;
22567;SDS011;11450;50.818;4.382;2022-07-30T06:16:56;9.85;;;7.05;;
22567;SDS011;11450;50.818;4.382;2022-07-30T06:19:21;11.02;;;8.13;;
22567;SDS011;11450;50.818;4.382;2022-07-30T06:21:52;10.57;;;8.27;;
22567;SDS011;11450;50.818;4.382;2022-07-30T06:24:18;10.65;;;6.32;;
22567;SDS011;11450;50.818;4.382;2022-07-30T06:26:43;9.13;;;6.80;;
22567;SDS011;11450;50.818;4.382;2022-07-30T06:29:09;11.45;;;7.40;;
22567;SDS011;11450;50.818;4.382;2022-07-30T06:31:34;14.75;;;6.88;;
22567;SDS011;11450;50.818;4.382;2022-07-30T06:34:02;11.73;;;6.85;;
22567;SDS011;11450;50.818;4.382;2022-07-30T06:36:27;12.15;;;6.85;;
22567;SDS011;11450;50.818;4.382;2022-07-30T06:38:54;14.23;;;7.90;;
22567;SDS011;11450;50.818;4.382;2022-07-30T06:41:20;14.80;;;7.03;;
22567;SDS011;11450;50.818;4.382;2022-07-30T06:43:45;7.85;;;4.50;;
22567;SDS011;11450;50.818;4.382;2022-07-30T06:46:11;6.97;;;4.40;;
22567;SDS011;11450;50.818;4.382;2022-07-30T06:48:36;7.30;;;4.47;;
22567;SDS011;11450;50.818;4.382;2022-07-30T06:51:02;6.60;;;4.22;;
22567;SDS011;11450;50.818;4.382;2022-07-30T06:53:28;5.85;;;3.90;;
22567;SDS011;11450;50.818;4.382;2022-07-30T06:55:53;6.68;;;3.80;;
22567;SDS011;11450;50.818;4.382;2022-07-30T06:58:19;8.05;;;4.53;;
22567;SDS011;11450;50.818;4.382;2022-07-30T07:00:44;7.40;;;4.30;;
22567;SDS011;11450;50.818;4.382;2022-07-30T07:03:10;5.00;;;4.15;;
22567;SDS011;11450;50.818;4.382;2022-07-30T07:05:36;9.43;;;4.60;;
22567;SDS011;11450;50.818;4.382;2022-07-30T07:08:02;9.25;;;4.22;;
22567;SDS011;11450;50.818;4.382;2022-07-30T07:10:28;8.43;;;3.75;;
22567;SDS011;11450;50.818;4.382;2022-07-30T07:12:54;7.93;;;4.03;;
22567;SDS011;11450;50.818;4.382;2022-07-30T07:15:20;5.82;;;3.63;;
22567;SDS011;11450;50.818;4.382;2022-07-30T07:17:46;6.95;;;3.30;;
22567;SDS011;11450;50.818;4.382;2022-07-30T07:20:12;6.25;;;3.13;;
22567;SDS011;11450;50.818;4.382;2022-07-30T07:22:37;5.75;;;3.28;;
22567;SDS011;11450;50.818;4.382;2022-07-30T07:25:03;4.07;;;2.80;;
22567;SDS011;11450;50.818;4.382;2022-07-30T07:27:29;5.63;;;3.53;;
22567;SDS011;11450;50.818;4.382;2022-07-30T07:29:55;6.93;;;2.65;;
22567;SDS011;11450;50.818;4.382;2022-07-30T07:32:21;5.07;;;2.53;;
22567;SDS011;11450;50.818;4.382;2022-07-30T07:34:46;4.40;;;1.88;;
22567;SDS011;11450;50.818;4.382;2022-07-30T07:37:12;3.58;;;1.83;;
22567;SDS011;11450;50.818;4.382;2022-07-30T07:39:39;6.60;;;2.20;;
22567;SDS011;11450;50.818;4.382;2022-07-30T07:42:05;5.32;;;2.40;;
22567;SDS011;11450;50.818;4.382;2022-07-30T07:44:31;5.43;;;2.25;;
22567;SDS011;11450;50.818;4.382;2022-07-30T07:46:56;4.38;;;2.25;;
22567;SDS011;11450;50.818;4.382;2022-07-30T07:49:22;4.55;;;2.50;;
22567;SDS011;11450;50.818;4.382;2022-07-30T07:51:48;4.30;;;1.95;;
22567;SDS011;11450;50.818;4.382;2022-07-30T07:54:13;4.55;;;1.70;;
22567;SDS011;11450;50.818;4.382;2022-07-30T07:56:39;6.15;;;1.85;;
22567;SDS011;11450;50.818;4.382;2022-07-30T07:59:05;4.47;;;1.65;;
22567;SDS011;11450;50.818;4.382;2022-07-30T08:01:31;5.95;;;1.77;;
22567;SDS011;11450;50.818;4.382;2022-07-30T08:03:56;4.10;;;1.75;;
22567;SDS011;11450;50.818;4.382;2022-07-30T08:06:22;4.07;;;1.65;;
22567;SDS011;11450;50.818;4.382;2022-07-30T08:08:49;4.30;;;1.60;;
22567;SDS011;11450;50.818;4.382;2022-07-30T08:11:15;4.95;;;1.60;;
22567;SDS011;11450;50.818;4.382;2022-07-30T08:13:40;2.97;;;1.23;;
22567;SDS011;11450;50.818;4.382;2022-07-30T08:16:06;3.85;;;1.40;;
22567;SDS011;11450;50.818;4.382;2022-07-30T08:18:34;3.67;;;1.73;;
22567;SDS011;11450;50.818;4.382;2022-07-30T08:21:01;4.35;;;1.55;;
22567;SDS011;11450;50.818;4.382;2022-07-30T08:23:27;5.10;;;1.50;;
22567;SDS011;11450;50.818;4.382;2022-07-30T08:25:53;3.95;;;1.60;;
22567;SDS011;11450;50.818;4.382;2022-07-30T08:28:20;4.53;;;1.83;;
22567;SDS011;11450;50.818;4.382;2022-07-30T08:30:45;3.90;;;1.90;;
22567;SDS011;11450;50.818;4.382;2022-07-30T08:33:11;3.17;;;1.50;;
22567;SDS011;11450;50.818;4.382;2022-07-30T08:35:37;4.88;;;1.70;;
22567;SDS011;11450;50.818;4.382;2022-07-30T08:38:02;4.22;;;1.50;;
22567;SDS011;11450;50.818;4.382;2022-07-30T08:40:28;2.42;;;1.55;;
22567;SDS011;11450;50.818;4.382;2022-07-30T08:42:59;2.20;;;1.25;;
22567;SDS011;11450;50.818;4.382;2022-07-30T08:45:27;4.43;;;1.75;;
22567;SDS011;11450;50.818;4.382;2022-07-30T08:47:54;3.60;;;1.50;;
22567;SDS011;11450;50.818;4.382;2022-07-30T08:50:23;3.97;;;1.55;;
22567;SDS011;11450;50.818;4.382;2022-07-30T08:52:49;3.88;;;1.20;;
22567;SDS011;11450;50.818;4.382;2022-07-30T08:55:19;5.03;;;1.67;;
22567;SDS011;11450;50.818;4.382;2022-07-30T08:57:46;2.78;;;1.40;;
22567;SDS011;11450;50.818;4.382;2022-07-30T09:00:12;2.88;;;1.55;;
22567;SDS011;11450;50.818;4.382;2022-07-30T09:02:38;4.20;;;1.63;;
22567;SDS011;11450;50.818;4.382;2022-07-30T09:05:04;3.40;;;1.45;;
22567;SDS011;11450;50.818;4.382;2022-07-30T09:07:31;3.25;;;1.48;;
22567;SDS011;11450;50.818;4.382;2022-07-30T09:09:57;2.63;;;1.55;;
22567;SDS011;11450;50.818;4.382;2022-07-30T09:15:05;5.78;;;1.80;;
22567;SDS011;11450;50.818;4.382;2022-07-30T09:17:55;3.03;;;1.55;;
22567;SDS011;11450;50.818;4.382;2022-07-30T09:20:23;5.93;;;1.60;;
22567;SDS011;11450;50.818;4.382;2022-07-30T09:22:54;12.63;;;3.00;;
22567;SDS011;11450;50.818;4.382;2022-07-30T09:25:31;3.28;;;1.27;;
22567;SDS011;11450;50.818;4.382;2022-07-30T09:28:10;4.95;;;1.52;;
22567;SDS011;11450;50.818;4.382;2022-07-30T09:30:43;3.85;;;1.70;;
22567;SDS011;11450;50.818;4.382;2022-07-30T09:33:13;4.28;;;1.40;;
22567;SDS011;11450;50.818;4.382;2022-07-30T09:35:40;2.50;;;1.38;;
22567;SDS011;11450;50.818;4.382;2022-07-30T09:38:07;2.95;;;1.50;;
22567;SDS011;11450;50.818;4.382;2022-07-30T09:40:33;3.08;;;1.23;;
22567;SDS011;11450;50.818;4.382;2022-07-30T09:43:02;3.70;;;1.88;;
22567;SDS011;11450;50.818;4.382;2022-07-30T09:45:30;5.30;;;1.52;;
22567;SDS011;11450;50.818;4.382;2022-07-30T09:47:56;3.13;;;1.52;;
22567;SDS011;11450;50.818;4.382;2022-07-30T09:50:23;4.10;;;1.45;;
22567;SDS011;11450;50.818;4.382;2022-07-30T09:52:51;1.70;;;1.15;;
22567;SDS011;11450;50.818;4.382;2022-07-30T09:55:28;2.72;;;1.15;;
22567;SDS011;11450;50.818;4.382;2022-07-30T09:57:58;4.80;;;1.05;;
22567;SDS011;11450;50.818;4.382;2022-07-30T10:00:29;4.35;;;1.83;;
22567;SDS011;11450;50.818;4.382;2022-07-30T10:02:56;3.97;;;1.50;;
22567;SDS011;11450;50.818;4.382;2022-07-30T10:05:24;4.85;;;1.73;;
22567;SDS011;11450;50.818;4.382;2022-07-30T10:07:56;5.82;;;1.50;;
22567;SDS011;11450;50.818;4.382;2022-07-30T10:10:25;3.97;;;1.85;;
22567;SDS011;11450;50.818;4.382;2022-07-30T10:12:56;3.95;;;1.50;;
22567;SDS011;11450;50.818;4.382;2022-07-30T10:15:27;4.00;;;1.40;;
22567;SDS011;11450;50.818;4.382;2022-07-30T10:17:57;2.90;;;1.10;;
22567;SDS011;11450;50.818;4.382;2022-07-30T10:20:24;2.38;;;0.93;;
22567;SDS011;11450;50.818;4.382;2022-07-30T10:22:51;7.78;;;2.03;;
22567;SDS011;11450;50.818;4.382;2022-07-30T10:25:21;1.58;;;1.20;;
22567;SDS011;11450;50.818;4.382;2022-07-30T10:27:48;1.38;;;0.98;;
22567;SDS011;11450;50.818;4.382;2022-07-30T10:30:14;8.02;;;1.38;;
22567;SDS011;11450;50.818;4.382;2022-07-30T10:32:40;2.72;;;1.40;;
22567;SDS011;11450;50.818;4.382;2022-07-30T10:35:07;2.50;;;1.45;;
22567;SDS011;11450;50.818;4.382;2022-07-30T10:37:40;2.15;;;1.23;;
22567;SDS011;11450;50.818;4.382;2022-07-30T10:40:13;2.45;;;1.63;;
22567;SDS011;11450;50.818;4.382;2022-07-30T10:45:11;6.07;;;1.50;;
22567;SDS011;11450;50.818;4.382;2022-07-30T10:47:43;3.45;;;1.80;;
22567;SDS011;11450;50.818;4.382;2022-07-30T10:50:14;6.20;;;1.67;;
22567;SDS011;11450;50.818;4.382;2022-07-30T10:52:47;1.85;;;1.40;;
22567;SDS011;11450;50.818;4.382;2022-07-30T10:55:28;4.93;;;1.90;;
22567;SDS011;11450;50.818;4.382;2022-07-30T11:00:35;4.20;;;2.47;;
22567;SDS011;11450;50.818;4.382;2022-07-30T11:03:24;4.63;;;1.88;;
22567;SDS011;11450;50.818;4.382;2022-07-30T11:08:40;5.35;;;1.80;;
22567;SDS011;11450;50.818;4.382;2022-07-30T11:13:55;4.35;;;1.30;;
22567;SDS011;11450;50.818;4.382;2022-07-30T11:16:22;3.75;;;1.60;;
22567;SDS011;11450;50.818;4.382;2022-07-30T11:19:12;2.47;;;1.48;;
22567;SDS011;11450;50.818;4.382;2022-07-30T11:21:43;2.88;;;1.38;;
22567;SDS011;11450;50.818;4.382;2022-07-30T11:27:08;1.98;;;1.20;;
22567;SDS011;11450;50.818;4.382;2022-07-30T11:29:34;2.25;;;1.40;;
22567;SDS011;11450;50.818;4.382;2022-07-30T11:32:36;4.00;;;1.63;;
22567;SDS011;11450;50.818;4.382;2022-07-30T11:35:12;2.30;;;1.40;;
22567;SDS011;11450;50.818;4.382;2022-07-30T11:40:34;2.08;;;1.38;;
22567;SDS011;11450;50.818;4.382;2022-07-30T11:46:08;5.18;;;1.55;;
22567;SDS011;11450;50.818;4.382;2022-07-30T11:48:41;5.43;;;1.17;;
22567;SDS011;11450;50.818;4.382;2022-07-30T11:51:19;2.63;;;1.30;;
22567;SDS011;11450;50.818;4.382;2022-07-30T11:54:03;2.42;;;1.20;;
22567;SDS011;11450;50.818;4.382;2022-07-30T11:56:31;3.10;;;1.23;;
22567;SDS011;11450;50.818;4.382;2022-07-30T11:59:02;3.63;;;1.48;;
22567;SDS011;11450;50.818;4.382;2022-07-30T12:01:30;3.40;;;1.70;;
22567;SDS011;11450;50.818;4.382;2022-07-30T12:04:00;3.95;;;1.45;;
22567;SDS011;11450;50.818;4.382;2022-07-30T12:06:29;2.65;;;1.40;;
22567;SDS011;11450;50.818;4.382;2022-07-30T12:08:56;4.07;;;1.80;;
22567;SDS011;11450;50.818;4.382;2022-07-30T12:11:23;4.68;;;1.50;;
22567;SDS011;11450;50.818;4.382;2022-07-30T12:13:56;1.90;;;0.95;;
22567;SDS011;11450;50.818;4.382;2022-07-30T12:16:24;2.47;;;1.80;;
22567;SDS011;11450;50.818;4.382;2022-07-30T12:18:51;4.05;;;1.35;;
22567;SDS011;11450;50.818;4.382;2022-07-30T12:21:17;5.10;;;1.52;;
22567;SDS011;11450;50.818;4.382;2022-07-30T12:23:59;3.47;;;1.60;;
22567;SDS011;11450;50.818;4.382;2022-07-30T12:26:27;4.93;;;1.10;;
22567;SDS011;11450;50.818;4.382;2022-07-30T12:28:54;5.50;;;1.52;;
22567;SDS011;11450;50.818;4.382;2022-07-30T12:31:21;2.97;;;1.42;;
22567;SDS011;11450;50.818;4.382;2022-07-30T12:33:47;3.08;;;1.30;;
22567;SDS011;11450;50.818;4.382;2022-07-30T12:36:23;5.78;;;1.50;;
22567;SDS011;11450;50.818;4.382;2022-07-30T12:38:50;4.22;;;1.30;;
22567;SDS011;11450;50.818;4.382;2022-07-30T12:41:18;3.55;;;1.20;;
22567;SDS011;11450;50.818;4.382;2022-07-30T12:43:54;3.08;;;1.17;;
22567;SDS011;11450;50.818;4.382;2022-07-30T12:46:21;5.55;;;1.85;;
22567;SDS011;11450;50.818;4.382;2022-07-30T12:48:49;3.53;;;1.52;;
22567;SDS011;11450;50.818;4.382;2022-07-30T12:51:16;3.25;;;1.27;;
22567;SDS011;11450;50.818;4.382;2022-07-30T12:53:41;2.25;;;1.30;;
22567;SDS011;11450;50.818;4.382;2022-07-30T12:56:11;2.38;;;1.13;;
22567;SDS011;11450;50.818;4.382;2022-07-30T12:58:41;3.30;;;1.20;;
22567;SDS011;11450;50.818;4.382;2022-07-30T13:01:07;2.13;;;1.10;;
22567;SDS011;11450;50.818;4.382;2022-07-30T13:03:34;8.43;;;1.27;;
22567;SDS011;11450;50.818;4.382;2022-07-30T13:06:16;3.45;;;1.38;;
22567;SDS011;11450;50.818;4.382;2022-07-30T13:08:52;4.13;;;1.50;;
22567;SDS011;11450;50.818;4.382;2022-07-30T13:11:26;2.70;;;1.45;;
22567;SDS011;11450;50.818;4.382;2022-07-30T13:14:02;6.30;;;1.20;;
22567;SDS011;11450;50.818;4.382;2022-07-30T13:16:29;5.85;;;1.25;;
22567;SDS011;11450;50.818;4.382;2022-07-30T13:18:56;4.63;;;1.33;;
22567;SDS011;11450;50.818;4.382;2022-07-30T13:21:22;2.58;;;1.30;;
22567;SDS011;11450;50.818;4.382;2022-07-30T13:23:48;3.08;;;1.52;;
22567;SDS011;11450;50.818;4.382;2022-07-30T13:26:14;3.50;;;1.42;;
22567;SDS011;11450;50.818;4.382;2022-07-30T13:28:40;4.28;;;1.40;;
22567;SDS011;11450;50.818;4.382;2022-07-30T13:31:06;3.95;;;1.42;;
22567;SDS011;11450;50.818;4.382;2022-07-30T13:33:32;2.63;;;1.27;;
22567;SDS011;11450;50.818;4.382;2022-07-30T13:36:00;5.65;;;1.63;;
22567;SDS011;11450;50.818;4.382;2022-07-30T13:38:26;3.60;;;1.58;;
22567;SDS011;11450;50.818;4.382;2022-07-30T13:40:52;10.80;;;1.70;;
22567;SDS011;11450;50.818;4.382;2022-07-30T13:43:18;5.60;;;1.33;;
22567;SDS011;11450;50.818;4.382;2022-07-30T13:45:43;3.00;;;1.30;;
22567;SDS011;11450;50.818;4.382;2022-07-30T13:48:13;2.28;;;1.45;;
22567;SDS011;11450;50.818;4.382;2022-07-30T13:50:39;5.20;;;1.40;;
22567;SDS011;11450;50.818;4.382;2022-07-30T13:53:06;3.42;;;1.55;;
22567;SDS011;11450;50.818;4.382;2022-07-30T13:55:33;4.13;;;1.30;;
22567;SDS011;11450;50.818;4.382;2022-07-30T13:57:59;4.22;;;1.40;;
22567;SDS011;11450;50.818;4.382;2022-07-30T14:00:25;2.10;;;1.30;;
22567;SDS011;11450;50.818;4.382;2022-07-30T14:02:56;3.45;;;1.40;;
22567;SDS011;11450;50.818;4.382;2022-07-30T14:05:23;4.38;;;1.23;;
22567;SDS011;11450;50.818;4.382;2022-07-30T14:07:49;7.38;;;1.63;;
22567;SDS011;11450;50.818;4.382;2022-07-30T14:10:14;3.38;;;1.67;;
22567;SDS011;11450;50.818;4.382;2022-07-30T14:12:40;2.80;;;1.30;;
22567;SDS011;11450;50.818;4.382;2022-07-30T14:15:06;4.47;;;1.33;;
22567;SDS011;11450;50.818;4.382;2022-07-30T14:17:33;4.60;;;1.83;;
22567;SDS011;11450;50.818;4.382;2022-07-30T14:19:59;3.72;;;1.25;;
22567;SDS011;11450;50.818;4.382;2022-07-30T14:22:24;5.45;;;1.30;;
22567;SDS011;11450;50.818;4.382;2022-07-30T14:24:50;3.92;;;1.40;;
22567;SDS011;11450;50.818;4.382;2022-07-30T14:27:16;6.88;;;1.40;;
22567;SDS011;11450;50.818;4.382;2022-07-30T14:29:44;5.80;;;1.23;;
22567;SDS011;11450;50.818;4.382;2022-07-30T14:32:10;4.18;;;1.30;;
22567;SDS011;11450;50.818;4.382;2022-07-30T14:34:36;4.85;;;1.30;;
22567;SDS011;11450;50.818;4.382;2022-07-30T14:37:01;2.42;;;1.00;;
22567;SDS011;11450;50.818;4.382;2022-07-30T14:39:27;4.07;;;1.33;;
22567;SDS011;11450;50.818;4.382;2022-07-30T14:41:54;4.90;;;1.75;;
22567;SDS011;11450;50.818;4.382;2022-07-30T14:44:20;3.70;;;1.17;;
22567;SDS011;11450;50.818;4.382;2022-07-30T14:46:46;2.03;;;1.02;;
22567;SDS011;11450;50.818;4.382;2022-07-30T14:49:12;3.25;;;0.98;;
22567;SDS011;11450;50.818;4.382;2022-07-30T14:51:39;3.90;;;1.00;;
22567;SDS011;11450;50.818;4.382;2022-07-30T14:54:05;6.82;;;1.13;;
22567;SDS011;11450;50.818;4.382;2022-07-30T14:56:31;3.30;;;1.17;;
22567;SDS011;11450;50.818;4.382;2022-07-30T14:58:57;4.35;;;1.30;;
22567;SDS011;11450;50.818;4.382;2022-07-30T15:01:23;3.50;;;1.02;;
22567;SDS011;11450;50.818;4.382;2022-07-30T15:03:49;2.65;;;1.38;;
22567;SDS011;11450;50.818;4.382;2022-07-30T15:06:15;1.98;;;1.10;;
22567;SDS011;11450;50.818;4.382;2022-07-30T15:08:41;2.63;;;1.40;;
22567;SDS011;11450;50.818;4.382;2022-07-30T15:11:09;2.60;;;1.13;;
22567;SDS011;11450;50.818;4.382;2022-07-30T15:13:35;4.28;;;1.25;;